Time;durP1;ratioP1;P1;durP2;ratioP2;P2;SDS_P1;SDS_P2;PMS_P1;PMS_P2;Temp;Humidity;BMP_temperature;BMP_pressure;BME280_temperature;BME280_humidity;BME280_pressure;Samples;Min_cycle;Max_cycle;Signal;HPM_P1;HPM_P2
2022/05/06 00:02:19;;;;;;;20.80;13.45;;;9.40;99.90;;;;;;5059157;28;20063;-48
2022/05/06 00:04:45;;;;;;;24.92;14.13;;;9.50;99.90;;;;;;5038787;28;20511;-51
2022/05/06 00:07:12;;;;;;;26.35;15.70;;;9.30;99.90;;;;;;5016840;28;20045;-47
2022/05/06 00:09:38;;;;;;;24.98;15.20;;;9.30;99.90;;;;;;5033698;28;20458;-49
2022/05/06 00:12:06;;;;;;;24.45;14.88;;;9.30;99.90;;;;;;5052127;28;20040;-48
2022/05/06 00:14:32;;;;;;;26.30;15.55;;;9.30;99.90;;;;;;5048608;28;20112;-49
2022/05/06 00:16:57;;;;;;;21.77;14.82;;;9.40;99.90;;;;;;5054688;28;20116;-48
2022/05/06 00:19:23;;;;;;;26.58;15.80;;;9.40;99.90;;;;;;5051121;28;20463;-51
2022/05/06 00:21:48;;;;;;;24.25;15.57;;;9.40;99.90;;;;;;5054139;28;20124;-48
2022/05/06 00:24:14;;;;;;;26.23;14.77;;;9.30;99.90;;;;;;5054121;28;20095;-47
2022/05/06 00:26:41;;;;;;;23.75;14.52;;;9.40;99.90;;;;;;5036242;28;20037;-48
2022/05/06 00:29:07;;;;;;;24.13;14.90;;;9.30;99.90;;;;;;5016069;28;20080;-47
2022/05/06 00:31:33;;;;;;;23.73;14.75;;;9.30;99.90;;;;;;5029645;28;20524;-48
2022/05/06 00:33:58;;;;;;;22.25;14.00;;;9.20;99.90;;;;;;5049405;28;20032;-47
2022/05/06 00:36:24;;;;;;;23.05;13.45;;;9.20;99.90;;;;;;5045432;28;20036;-49
2022/05/06 00:38:49;;;;;;;24.67;15.20;;;9.10;99.90;;;;;;5043340;28;20067;-48
2022/05/06 00:41:15;;;;;;;23.35;14.77;;;9.10;99.90;;;;;;5053140;28;20068;-47
2022/05/06 00:43:41;;;;;;;26.85;14.90;;;9.10;99.90;;;;;;5053338;28;20538;-48
2022/05/06 00:46:15;;;;;;;25.35;15.38;;;9.00;99.90;;;;;;5053380;28;20037;-51
2022/05/06 00:48:50;;;;;;;25.13;13.90;;;8.90;99.90;;;;;;5044218;28;20033;-51
2022/05/06 00:51:18;;;;;;;23.23;13.95;;;8.90;99.90;;;;;;5046727;28;20041;-49
2022/05/06 00:53:44;;;;;;;24.17;15.82;;;8.80;99.90;;;;;;5050331;28;20033;-50
2022/05/06 00:56:15;;;;;;;25.15;14.95;;;8.70;99.90;;;;;;5031776;28;20041;-52
2022/05/06 00:58:44;;;;;;;24.17;13.52;;;8.70;99.90;;;;;;5042479;28;20079;-51
2022/05/06 01:01:09;;;;;;;26.13;14.27;;;8.70;99.90;;;;;;5044739;28;20040;-48
2022/05/06 01:03:35;;;;;;;21.23;12.50;;;8.70;99.90;;;;;;5039670;28;20099;-49
2022/05/06 01:06:13;;;;;;;18.65;11.48;;;8.70;99.90;;;;;;5050691;28;20059;-49
2022/05/06 01:08:42;;;;;;;23.90;14.18;;;8.60;99.90;;;;;;5044982;28;20116;-50
2022/05/06 01:11:12;;;;;;;23.67;14.20;;;8.50;99.90;;;;;;5041335;28;20088;-48
2022/05/06 01:13:43;;;;;;;20.10;12.40;;;8.50;99.90;;;;;;5045734;28;20034;-51
2022/05/06 01:16:09;;;;;;;20.80;11.07;;;8.50;99.90;;;;;;5033189;28;20041;-51
2022/05/06 01:18:35;;;;;;;17.95;11.90;;;8.40;99.90;;;;;;5011018;28;20035;-51
2022/05/06 01:21:02;;;;;;;22.98;13.02;;;8.40;99.90;;;;;;5032531;28;20044;-50
2022/05/06 01:23:28;;;;;;;22.98;14.50;;;8.30;99.90;;;;;;5052455;28;20049;-48
2022/05/06 01:25:54;;;;;;;23.83;13.68;;;8.20;99.90;;;;;;5032481;28;20171;-50
2022/05/06 01:28:22;;;;;;;23.63;14.63;;;8.20;99.90;;;;;;5027153;28;20041;-48
2022/05/06 01:30:49;;;;;;;27.40;16.92;;;8.20;99.90;;;;;;5054976;28;20499;-51
2022/05/06 01:33:21;;;;;;;24.27;15.40;;;8.10;99.90;;;;;;5032812;28;20045;-51
2022/05/06 01:35:51;;;;;;;25.73;14.93;;;8.10;99.90;;;;;;5041809;28;20104;-50
2022/05/06 01:38:21;;;;;;;32.97;16.25;;;8.10;99.90;;;;;;5043171;28;20029;-48
2022/05/06 01:40:52;;;;;;;28.50;17.13;;;8.10;99.90;;;;;;5044693;28;20038;-50
2022/05/06 01:43:18;;;;;;;29.52;16.75;;;8.10;99.90;;;;;;5028693;28;20041;-49
2022/05/06 01:45:47;;;;;;;29.98;16.58;;;8.10;99.90;;;;;;5022610;28;20034;-51
2022/05/06 01:48:16;;;;;;;24.80;14.88;;;8.10;99.90;;;;;;5050349;28;20043;-50
2022/05/06 01:50:43;;;;;;;26.73;15.88;;;8.10;99.90;;;;;;5035171;28;20099;-50
2022/05/06 01:53:09;;;;;;;23.58;14.05;;;8.10;99.90;;;;;;5049806;28;20075;-48
2022/05/06 01:55:36;;;;;;;25.42;14.43;;;8.10;99.90;;;;;;5017793;28;20582;-50
2022/05/06 01:58:04;;;;;;;22.75;14.10;;;8.20;99.90;;;;;;5032947;28;20457;-48
2022/05/06 02:00:29;;;;;;;23.63;14.02;;;8.10;99.90;;;;;;5046609;28;20091;-47
2022/05/06 02:02:56;;;;;;;27.55;14.85;;;8.10;99.90;;;;;;5021371;28;20398;-48
2022/05/06 02:05:22;;;;;;;25.67;15.40;;;8.10;99.90;;;;;;5051244;28;20072;-48
2022/05/06 02:07:50;;;;;;;23.33;14.82;;;8.10;99.90;;;;;;5042834;28;20103;-49
2022/05/06 02:10:17;;;;;;;21.70;12.75;;;8.10;99.90;;;;;;5051625;28;20111;-49
2022/05/06 02:12:44;;;;;;;26.65;16.38;;;8.10;99.90;;;;;;5051921;28;20037;-50
2022/05/06 02:15:13;;;;;;;31.38;18.70;;;8.10;99.90;;;;;;5051412;28;20044;-50
2022/05/06 02:17:39;;;;;;;24.83;14.38;;;8.20;99.90;;;;;;5051436;28;20111;-51
2022/05/06 02:20:06;;;;;;;26.58;15.05;;;8.20;99.90;;;;;;5052705;28;20040;-51
2022/05/06 02:22:33;;;;;;;26.30;16.58;;;8.10;99.90;;;;;;5046091;28;20536;-51
2022/05/06 02:24:58;;;;;;;25.27;16.08;;;8.10;99.90;;;;;;5049634;28;20041;-49
2022/05/06 02:27:24;;;;;;;28.65;16.05;;;8.10;99.90;;;;;;5026252;28;20041;-48
2022/05/06 02:35:19;;;;;;;31.08;16.88;;;8.00;99.90;;;;;;5031881;28;20096;-50
2022/05/06 02:37:45;;;;;;;30.40;17.13;;;7.90;99.90;;;;;;5031108;28;20084;-52
2022/05/06 02:40:11;;;;;;;30.35;15.93;;;7.90;99.90;;;;;;5032502;28;20040;-50
2022/05/06 02:42:37;;;;;;;27.30;16.55;;;7.90;99.90;;;;;;5051126;28;20055;-48
2022/05/06 02:45:03;;;;;;;30.50;17.65;;;7.80;99.90;;;;;;5032612;28;20069;-48
2022/05/06 02:47:29;;;;;;;27.55;16.92;;;7.80;99.90;;;;;;5051005;28;20112;-48
2022/05/06 02:49:55;;;;;;;31.27;17.23;;;7.80;99.90;;;;;;5041836;28;20544;-49
2022/05/06 02:52:22;;;;;;;31.13;17.75;;;7.80;99.90;;;;;;5050922;28;20159;-49
2022/05/06 02:54:47;;;;;;;30.35;18.13;;;7.80;99.90;;;;;;5054646;28;20037;-49
2022/05/06 02:57:13;;;;;;;32.45;17.98;;;7.80;99.90;;;;;;5047821;28;20037;-49
2022/05/06 02:59:39;;;;;;;35.83;19.42;;;7.80;99.90;;;;;;5039230;28;20037;-49
2022/05/06 03:02:05;;;;;;;34.55;19.58;;;7.70;99.90;;;;;;5050542;28;20398;-48
2022/05/06 03:04:31;;;;;;;32.72;19.17;;;7.70;99.90;;;;;;5055123;28;20135;-48
2022/05/06 03:06:57;;;;;;;31.25;17.90;;;7.70;99.90;;;;;;5055300;28;20041;-48
2022/05/06 03:09:23;;;;;;;30.55;18.98;;;7.80;99.90;;;;;;5058077;28;20040;-48
2022/05/06 03:11:49;;;;;;;22.40;13.70;;;7.80;99.90;;;;;;5035982;28;20041;-49
2022/05/06 03:14:14;;;;;;;20.95;14.07;;;7.80;99.90;;;;;;5009534;28;20106;-48
2022/05/06 03:16:40;;;;;;;22.92;14.65;;;7.70;99.90;;;;;;5035383;28;20037;-49
2022/05/06 03:19:06;;;;;;;26.45;16.30;;;7.70;99.90;;;;;;5026489;28;20033;-48
2022/05/06 03:21:32;;;;;;;29.85;17.33;;;7.70;99.90;;;;;;5034675;28;20500;-48
2022/05/06 03:23:59;;;;;;;32.10;17.88;;;7.70;99.90;;;;;;5052435;28;20044;-48
2022/05/06 03:26:25;;;;;;;29.10;17.30;;;7.80;99.90;;;;;;5037052;28;20199;-49
2022/05/06 03:28:52;;;;;;;26.95;16.05;;;7.70;99.90;;;;;;5053937;28;20144;-49
2022/05/06 03:31:18;;;;;;;22.10;14.32;;;7.70;99.90;;;;;;5046560;28;20036;-48
2022/05/06 03:33:44;;;;;;;26.10;14.80;;;7.70;99.90;;;;;;5047041;28;20029;-48
2022/05/06 03:36:10;;;;;;;19.77;13.40;;;7.70;99.90;;;;;;5036934;28;20035;-48
2022/05/06 03:38:36;;;;;;;14.88;9.50;;;7.70;99.90;;;;;;5053439;28;20430;-48
2022/05/06 03:41:02;;;;;;;12.35;8.77;;;7.60;99.90;;;;;;5053092;28;20127;-49
2022/05/06 03:43:28;;;;;;;13.70;9.68;;;7.50;99.90;;;;;;5034945;28;20041;-48
2022/05/06 03:45:54;;;;;;;31.42;11.27;;;7.50;99.90;;;;;;5045334;28;20083;-48
2022/05/06 03:48:24;;;;;;;22.75;12.65;;;7.40;99.90;;;;;;5045862;28;20033;-48
2022/05/06 03:53:38;;;;;;;22.15;13.25;;;7.20;99.90;;;;;;5038194;28;20556;-48
2022/05/06 03:56:04;;;;;;;15.93;10.73;;;7.10;99.90;;;;;;5054714;28;20052;-48
2022/05/06 03:58:30;;;;;;;23.27;13.30;;;7.00;99.90;;;;;;5053250;28;20040;-48
2022/05/06 04:00:56;;;;;;;25.65;14.05;;;7.00;99.90;;;;;;5052787;28;20047;-48
2022/05/06 04:03:22;;;;;;;22.35;13.73;;;7.00;99.90;;;;;;5046752;28;20048;-48
2022/05/06 04:05:47;;;;;;;23.15;13.40;;;7.00;99.90;;;;;;5054605;28;20064;-48
2022/05/06 04:08:13;;;;;;;24.38;14.20;;;7.00;99.90;;;;;;5035072;28;20045;-48
2022/05/06 04:10:39;;;;;;;26.08;16.63;;;7.00;99.90;;;;;;5033193;28;20041;-48
2022/05/06 04:13:05;;;;;;;35.58;20.23;;;7.00;99.90;;;;;;5039369;28;20029;-47
2022/05/06 04:15:33;;;;;;;38.63;21.52;;;7.00;99.90;;;;;;5045469;28;20410;-48
2022/05/06 04:18:00;;;;;;;26.10;14.40;;;7.00;99.90;;;;;;5053924;28;20112;-48
2022/05/06 04:25:55;;;;;;;30.30;16.73;;;6.80;99.90;;;;;;5034031;28;20056;-48
2022/05/06 04:28:21;;;;;;;36.83;19.48;;;6.80;99.90;;;;;;5034366;28;20048;-48
2022/05/06 04:30:47;;;;;;;51.05;23.63;;;6.80;99.90;;;;;;5053296;28;20029;-48
2022/05/06 04:33:12;;;;;;;74.45;28.27;;;6.80;99.90;;;;;;5041801;28;20040;-48
2022/05/06 04:35:39;;;;;;;97.30;28.15;;;6.80;99.90;;;;;;5057840;28;20036;-47
2022/05/06 04:38:05;;;;;;;162.10;28.92;;;6.90;99.90;;;;;;5053744;28;20037;-48
2022/05/06 04:40:31;;;;;;;318.90;33.05;;;6.90;99.90;;;;;;5047902;28;20410;-47
2022/05/06 04:42:56;;;;;;;199.85;30.52;;;6.90;99.90;;;;;;5033675;28;20049;-47
2022/05/06 04:45:22;;;;;;;369.35;34.05;;;7.00;99.90;;;;;;5015685;28;20076;-48
2022/05/06 04:47:47;;;;;;;190.95;30.25;;;7.10;99.90;;;;;;5024585;28;20517;-48
2022/05/06 04:50:13;;;;;;;244.48;32.65;;;7.10;99.90;;;;;;5046056;28;20079;-47
2022/05/06 04:52:38;;;;;;;214.07;32.40;;;7.20;99.90;;;;;;5048995;28;20037;-48
2022/05/06 04:55:05;;;;;;;216.40;30.95;;;7.30;99.90;;;;;;5044832;28;20041;-48
2022/05/06 04:57:30;;;;;;;180.88;31.45;;;7.50;99.90;;;;;;5034428;28;20033;-48
2022/05/06 04:59:56;;;;;;;129.88;29.92;;;7.60;99.90;;;;;;5027137;28;20049;-48
2022/05/06 05:02:22;;;;;;;301.15;33.35;;;7.70;99.90;;;;;;5052675;28;20080;-47
2022/05/06 05:04:52;;;;;;;250.05;30.70;;;7.80;99.90;;;;;;5056997;28;20036;-48
2022/05/06 05:07:18;;;;;;;282.65;31.95;;;7.90;99.90;;;;;;5043813;28;20517;-47
2022/05/06 05:09:44;;;;;;;330.98;31.08;;;8.00;99.90;;;;;;5034688;28;20091;-48
2022/05/06 05:12:10;;;;;;;241.43;29.60;;;8.00;99.90;;;;;;5052731;28;20090;-48
2022/05/06 05:14:36;;;;;;;297.55;30.73;;;8.10;99.90;;;;;;5018054;28;20123;-47
2022/05/06 05:17:01;;;;;;;336.33;32.13;;;8.20;99.90;;;;;;5051986;28;20051;-48
2022/05/06 05:19:27;;;;;;;309.10;33.70;;;8.30;99.90;;;;;;5051907;28;20033;-48
2022/05/06 05:21:53;;;;;;;189.27;29.63;;;8.30;99.90;;;;;;5043807;28;20041;-48
2022/05/06 05:24:19;;;;;;;163.13;29.75;;;8.40;99.90;;;;;;5022767;28;20045;-48
2022/05/06 05:26:44;;;;;;;272.80;30.25;;;8.50;99.90;;;;;;5044677;28;20445;-48
2022/05/06 05:29:10;;;;;;;183.80;29.33;;;8.50;99.90;;;;;;5041455;28;20041;-48
2022/05/06 05:31:35;;;;;;;142.70;29.85;;;8.60;99.90;;;;;;5043909;28;20033;-48
2022/05/06 05:34:01;;;;;;;247.23;32.92;;;8.70;99.90;;;;;;5038316;28;20037;-48
2022/05/06 05:36:26;;;;;;;209.63;32.65;;;8.80;99.90;;;;;;5039925;28;20090;-48
2022/05/06 05:38:52;;;;;;;164.57;31.58;;;8.80;99.90;;;;;;5038993;28;20091;-48
2022/05/06 05:41:17;;;;;;;94.78;29.17;;;8.90;99.90;;;;;;5046801;28;20506;-47
2022/05/06 05:49:11;;;;;;;116.72;29.85;;;9.10;99.90;;;;;;5036601;28;20104;-48
2022/05/06 05:51:37;;;;;;;122.60;42.17;;;9.30;99.90;;;;;;5052135;28;20123;-48
2022/05/06 05:54:02;;;;;;;201.55;48.60;;;9.30;99.90;;;;;;5015364;28;20051;-48
2022/05/06 05:56:28;;;;;;;239.80;47.67;;;9.40;99.90;;;;;;5032036;28;20135;-48
2022/05/06 05:58:54;;;;;;;208.85;47.03;;;9.40;99.90;;;;;;5038827;28;20068;-48
2022/05/06 06:01:19;;;;;;;191.98;46.45;;;9.50;99.90;;;;;;5038063;28;20095;-48
2022/05/06 06:03:45;;;;;;;242.63;52.50;;;9.50;99.90;;;;;;5047218;28;20108;-48
2022/05/06 06:06:10;;;;;;;160.18;40.38;;;9.60;99.90;;;;;;5049868;28;20461;-48
2022/05/06 06:08:36;;;;;;;138.23;38.10;;;9.70;99.90;;;;;;5019323;28;20060;-48
2022/05/06 06:11:05;;;;;;;138.40;41.45;;;9.70;99.90;;;;;;5031675;28;20049;-48
2022/05/06 06:13:31;;;;;;;153.00;41.50;;;9.80;99.90;;;;;;5031808;28;20045;-48
2022/05/06 06:15:57;;;;;;;119.97;42.08;;;9.90;99.90;;;;;;5052109;28;20029;-50
2022/05/06 06:18:26;;;;;;;118.45;41.70;;;10.00;99.90;;;;;;5051523;28;20041;-48
2022/05/06 06:20:54;;;;;;;146.02;38.83;;;10.00;99.90;;;;;;5051628;28;20041;-49
2022/05/06 06:23:20;;;;;;;117.97;35.00;;;10.10;99.90;;;;;;5033584;28;20053;-48
2022/05/06 06:25:46;;;;;;;156.38;39.00;;;10.10;99.90;;;;;;5050854;28;20033;-48
2022/05/06 06:28:12;;;;;;;160.07;35.92;;;10.20;99.90;;;;;;5052796;28;20218;-47
2022/05/06 06:30:37;;;;;;;159.75;37.00;;;10.20;99.90;;;;;;5043311;28;20045;-48
2022/05/06 06:33:07;;;;;;;126.45;34.63;;;10.30;99.90;;;;;;5051670;28;20037;-47
2022/05/06 06:35:32;;;;;;;156.95;34.60;;;10.40;99.90;;;;;;5050555;28;20616;-48
2022/05/06 06:37:58;;;;;;;138.27;36.17;;;10.40;99.90;;;;;;5032658;28;20033;-49
2022/05/06 06:40:24;;;;;;;122.15;36.05;;;10.40;99.90;;;;;;4997541;28;20055;-48
2022/05/06 06:42:49;;;;;;;146.55;38.17;;;10.50;99.90;;;;;;5053006;28;20039;-48
2022/05/06 06:45:15;;;;;;;127.05;38.58;;;10.50;99.90;;;;;;5049696;28;20498;-48
2022/05/06 06:47:41;;;;;;;110.53;37.97;;;10.60;99.90;;;;;;5042761;28;20078;-48
2022/05/06 06:50:07;;;;;;;122.63;36.38;;;10.60;99.90;;;;;;5040223;28;20053;-48
2022/05/06 06:52:32;;;;;;;132.13;38.03;;;10.70;99.90;;;;;;5050060;28;20086;-48
2022/05/06 06:54:59;;;;;;;117.05;37.80;;;10.70;99.90;;;;;;5040310;28;20110;-50
2022/05/06 06:57:26;;;;;;;117.50;38.00;;;10.80;99.90;;;;;;5047079;28;20067;-48
2022/05/06 06:59:52;;;;;;;144.88;38.75;;;10.80;99.90;;;;;;5037516;28;20302;-49
2022/05/06 07:02:17;;;;;;;112.40;37.00;;;10.90;99.90;;;;;;5043622;28;20119;-48
2022/05/06 07:04:43;;;;;;;115.90;37.25;;;10.90;99.90;;;;;;5049292;28;20029;-48
2022/05/06 07:12:37;;;;;;;95.57;34.17;;;11.00;99.90;;;;;;5045737;28;20540;-49
2022/05/06 07:15:04;;;;;;;87.40;31.40;;;11.10;99.90;;;;;;5051263;28;20068;-49
2022/05/06 07:17:29;;;;;;;87.10;30.58;;;11.10;99.90;;;;;;5060566;28;20051;-48
2022/05/06 07:19:55;;;;;;;91.97;29.88;;;11.20;99.90;;;;;;5051134;28;20040;-48
2022/05/06 07:22:20;;;;;;;92.18;31.40;;;11.30;99.90;;;;;;5041293;28;20112;-49
2022/05/06 07:24:46;;;;;;;94.63;33.03;;;11.30;99.90;;;;;;5043279;28;20056;-49
2022/05/06 07:27:12;;;;;;;87.38;29.88;;;11.40;99.90;;;;;;5021809;28;20102;-49
2022/05/06 07:29:37;;;;;;;94.85;31.38;;;11.40;99.90;;;;;;5035900;28;20096;-49
2022/05/06 07:32:03;;;;;;;98.97;32.67;;;11.40;99.90;;;;;;5041024;28;20059;-48
2022/05/06 07:34:29;;;;;;;78.85;28.65;;;11.50;99.90;;;;;;5042001;28;20044;-48
2022/05/06 07:36:54;;;;;;;88.63;29.20;;;11.50;99.90;;;;;;5039677;28;20068;-49
2022/05/06 07:39:20;;;;;;;87.20;28.58;;;11.60;99.90;;;;;;5042613;28;20048;-49
2022/05/06 07:41:46;;;;;;;70.20;26.75;;;11.60;99.90;;;;;;5041666;28;20091;-48
2022/05/06 07:44:12;;;;;;;61.75;24.58;;;11.70;99.90;;;;;;5044864;28;20041;-49
2022/05/06 07:46:38;;;;;;;56.30;21.92;;;11.80;99.90;;;;;;5037965;28;20057;-49
2022/05/06 07:49:05;;;;;;;52.45;22.17;;;11.90;99.90;;;;;;5034629;28;20045;-50
2022/05/06 07:51:31;;;;;;;58.28;23.40;;;12.00;99.90;;;;;;5035978;28;20045;-50
2022/05/06 07:53:56;;;;;;;50.00;22.42;;;12.10;99.90;;;;;;5038923;28;20047;-51
2022/05/06 07:56:23;;;;;;;42.65;19.67;;;12.20;99.90;;;;;;5024815;28;20037;-49
2022/05/06 07:58:50;;;;;;;42.75;19.90;;;12.20;99.90;;;;;;5017662;28;20075;-50
2022/05/06 08:01:15;;;;;;;38.38;19.52;;;12.20;99.90;;;;;;5037289;28;20102;-48
2022/05/06 08:06:25;;;;;;;45.78;23.80;;;12.30;99.90;;;;;;5025668;28;20044;-52
2022/05/06 08:08:50;;;;;;;38.72;20.95;;;12.40;99.90;;;;;;5039265;28;20029;-51
2022/05/06 08:11:17;;;;;;;36.03;19.20;;;12.50;99.90;;;;;;5022513;28;20452;-49
2022/05/06 08:13:44;;;;;;;37.05;19.05;;;12.50;99.90;;;;;;5048696;28;20395;-48
2022/05/06 08:16:10;;;;;;;31.02;17.25;;;12.60;99.90;;;;;;5008130;28;20596;-49
2022/05/06 08:18:36;;;;;;;23.98;15.55;;;12.70;99.90;;;;;;5041112;28;20046;-51
2022/05/06 08:21:02;;;;;;;25.25;15.52;;;12.70;99.90;;;;;;5045504;28;20049;-50
2022/05/06 08:23:28;;;;;;;24.83;15.02;;;12.80;99.90;;;;;;5048917;28;20041;-49
2022/05/06 08:25:54;;;;;;;19.02;13.88;;;12.80;99.90;;;;;;5042419;28;20091;-50
2022/05/06 08:28:20;;;;;;;21.58;14.32;;;13.00;99.90;;;;;;5043557;28;20064;-49
2022/05/06 08:30:47;;;;;;;19.27;14.43;;;13.10;99.90;;;;;;5029529;28;20067;-52
2022/05/06 08:33:13;;;;;;;22.38;15.07;;;13.20;99.90;;;;;;5049254;28;20421;-49
2022/05/06 08:35:38;;;;;;;20.30;14.63;;;13.20;99.90;;;;;;5044414;28;20033;-50
2022/05/06 08:38:05;;;;;;;19.50;14.13;;;13.30;99.90;;;;;;5051182;28;20037;-50
2022/05/06 08:40:33;;;;;;;18.88;14.85;;;13.30;99.90;;;;;;5053137;28;20045;-49
2022/05/06 08:42:59;;;;;;;18.00;14.35;;;13.40;99.90;;;;;;5033434;28;20049;-49
2022/05/06 08:50:56;;;;;;;18.42;13.30;;;13.40;99.90;;;;;;5044899;28;20418;-51
2022/05/06 08:53:27;;;;;;;17.33;13.27;;;13.60;99.90;;;;;;5047756;28;20040;-51
2022/05/06 08:55:55;;;;;;;17.05;13.07;;;13.80;99.90;;;;;;5033661;28;20105;-49
2022/05/06 08:58:22;;;;;;;14.85;12.02;;;14.00;99.90;;;;;;5051615;28;20098;-49
2022/05/06 09:00:48;;;;;;;15.43;12.25;;;14.10;99.90;;;;;;5053004;28;20040;-51
2022/05/06 09:03:15;;;;;;;14.70;11.75;;;14.10;99.90;;;;;;5034390;28;20066;-51
2022/05/06 09:05:54;;;;;;;15.30;12.27;;;14.20;99.90;;;;;;5052176;28;20108;-52
2022/05/06 09:08:21;;;;;;;14.63;11.88;;;14.40;99.90;;;;;;5041213;28;20037;-51
2022/05/06 09:11:01;;;;;;;13.68;11.82;;;14.60;99.90;;;;;;5033212;28;20094;-52
2022/05/06 09:13:27;;;;;;;14.85;10.73;;;14.60;99.90;;;;;;5034932;28;20049;-52
2022/05/06 09:19:16;;;;;;;13.63;10.60;;;14.80;99.90;;;;;;5016531;28;20069;-48
2022/05/06 09:21:59;;;;;;;12.65;9.98;;;15.20;99.90;;;;;;5043204;28;20376;-52
2022/05/06 09:24:27;;;;;;;12.07;10.38;;;15.40;99.90;;;;;;5046478;28;20112;-50
2022/05/06 09:27:05;;;;;;;14.68;10.63;;;15.50;99.90;;;;;;5038209;28;20045;-50
2022/05/06 09:29:39;;;;;;;12.40;10.30;;;15.60;99.90;;;;;;5047754;28;20079;-51
2022/05/06 09:32:22;;;;;;;11.35;9.27;;;15.80;99.90;;;;;;5025632;28;20051;-49
2022/05/06 09:34:55;;;;;;;10.52;9.15;;;16.00;99.90;;;;;;5052685;28;20055;-51
2022/05/06 09:37:40;;;;;;;11.40;8.75;;;16.10;99.90;;;;;;5025614;28;20038;-52
2022/05/06 09:40:12;;;;;;;12.13;9.15;;;16.20;99.90;;;;;;5016371;28;20114;-52
2022/05/06 09:42:44;;;;;;;12.77;9.60;;;16.40;99.90;;;;;;5044209;28;20398;-51
2022/05/06 09:45:12;;;;;;;11.95;8.73;;;16.50;99.90;;;;;;5034483;28;20479;-51
2022/05/06 09:47:38;;;;;;;10.98;8.82;;;16.40;99.90;;;;;;5051867;28;20072;-50
2022/05/06 09:50:06;;;;;;;12.13;8.82;;;16.30;99.90;;;;;;5049637;28;20044;-51
2022/05/06 09:52:32;;;;;;;11.93;7.70;;;16.40;99.90;;;;;;5046389;28;20036;-52
2022/05/06 09:54:58;;;;;;;9.02;7.25;;;16.60;99.90;;;;;;5051326;28;20051;-49
2022/05/06 09:57:24;;;;;;;10.95;7.95;;;16.70;99.90;;;;;;5043866;28;20036;-52
2022/05/06 09:59:50;;;;;;;11.50;8.43;;;16.80;99.90;;;;;;5017827;28;20562;-50
2022/05/06 10:02:17;;;;;;;10.35;8.02;;;16.90;99.90;;;;;;5051932;28;20041;-50
2022/05/06 10:04:44;;;;;;;13.10;8.07;;;16.90;99.90;;;;;;5052101;28;20041;-51
2022/05/06 10:07:14;;;;;;;9.90;8.27;;;16.90;99.90;;;;;;5050065;28;20045;-50
2022/05/06 10:10:08;;;;;;;11.02;7.85;;;16.90;99.90;;;;;;5052038;28;20060;-49
2022/05/06 10:12:40;;;;;;;9.35;8.27;;;16.90;99.90;;;;;;5031652;28;20411;-52
2022/05/06 10:15:08;;;;;;;12.05;8.68;;;16.80;99.90;;;;;;5031878;28;20041;-50
2022/05/06 10:17:56;;;;;;;12.50;8.15;;;16.90;99.90;;;;;;5051286;28;20029;-49
2022/05/06 10:20:36;;;;;;;12.38;8.98;;;16.90;99.90;;;;;;4998244;28;20600;-48
2022/05/06 10:23:02;;;;;;;14.90;8.77;;;16.90;99.90;;;;;;5031581;28;20139;-52
2022/05/06 10:25:43;;;;;;;10.63;8.50;;;17.00;99.90;;;;;;5034256;28;20087;-53
2022/05/06 10:34:17;;;;;;;9.43;7.35;;;17.40;99.90;;;;;;5051576;28;20402;-53
2022/05/06 10:36:48;;;;;;;15.43;8.10;;;17.50;99.90;;;;;;5048718;28;20051;-51
2022/05/06 10:39:32;;;;;;;11.50;9.15;;;17.50;99.90;;;;;;5042872;28;20041;-50
2022/05/06 10:42:09;;;;;;;11.10;8.52;;;17.30;99.90;;;;;;5051282;28;20518;-52
2022/05/06 10:44:35;;;;;;;12.10;8.13;;;17.40;99.90;;;;;;5033500;28;20045;-51
2022/05/06 10:47:03;;;;;;;10.27;7.53;;;17.50;99.90;;;;;;5037739;28;20037;-52
2022/05/06 10:49:35;;;;;;;10.95;7.97;;;17.60;99.90;;;;;;5045453;28;20120;-49
2022/05/06 10:52:15;;;;;;;10.95;7.75;;;17.80;99.90;;;;;;5091770;23;20064;-52
2022/05/06 10:54:53;;;;;;;10.43;7.55;;;18.00;99.90;;;;;;5085451;28;20096;-47
2022/05/06 10:57:20;;;;;;;9.02;6.75;;;18.10;99.90;;;;;;5066953;28;20032;-52
2022/05/06 11:00:06;;;;;;;10.48;7.78;;;18.20;99.90;;;;;;5071316;28;20032;-47
2022/05/06 11:02:34;;;;;;;8.93;6.38;;;18.30;99.90;;;;;;5069226;28;20493;-48
2022/05/06 11:05:01;;;;;;;8.07;6.13;;;18.40;99.90;;;;;;5071445;28;20115;-47
2022/05/06 11:07:28;;;;;;;6.18;5.10;;;18.50;99.90;;;;;;5065069;28;20106;-50
2022/05/06 11:09:55;;;;;;;8.38;5.55;;;18.60;99.90;;;;;;5070144;28;20067;-47
2022/05/06 11:12:42;;;;;;;9.00;5.03;;;18.60;99.90;;;;;;5071198;28;20122;-47
2022/05/06 11:15:15;;;;;;;7.05;4.95;;;18.80;99.80;;;;;;5070913;28;20070;-47
2022/05/06 11:17:42;;;;;;;8.90;5.13;;;18.70;98.60;;;;;;5070189;28;20239;-49
2022/05/06 11:20:21;;;;;;;8.77;5.60;;;18.90;98.90;;;;;;5071130;28;20057;-48
2022/05/06 11:22:58;;;;;;;7.22;4.38;;;19.00;98.20;;;;;;5071532;28;20040;-50
2022/05/06 11:25:28;;;;;;;6.88;5.30;;;19.10;97.80;;;;;;5073146;28;20036;-48
2022/05/06 11:27:57;;;;;;;9.10;5.43;;;19.10;98.00;;;;;;5067648;28;20040;-48
2022/05/06 11:30:24;;;;;;;5.70;3.70;;;19.20;97.60;;;;;;5070129;28;20036;-47
2022/05/06 11:32:57;;;;;;;5.72;4.10;;;19.10;96.00;;;;;;5074812;28;20440;-51
2022/05/06 11:35:26;;;;;;;6.75;5.32;;;19.10;94.80;;;;;;5074140;28;20048;-47
2022/05/06 11:37:52;;;;;;;10.00;5.80;;;19.10;94.80;;;;;;5073889;28;20126;-47
2022/05/06 11:40:35;;;;;;;5.97;3.78;;;19.30;95.00;;;;;;5074991;28;20438;-50
2022/05/06 11:43:02;;;;;;;7.85;4.63;;;19.40;94.60;;;;;;5074714;28;20456;-47
2022/05/06 11:48:15;;;;;;;7.72;4.47;;;19.50;93.00;;;;;;5068711;28;20043;-47
2022/05/06 11:50:42;;;;;;;8.73;5.20;;;19.60;92.80;;;;;;5074362;28;20032;-49
2022/05/06 11:53:10;;;;;;;11.95;4.70;;;19.60;92.90;;;;;;5074498;28;20537;-48
2022/05/06 11:55:38;;;;;;;10.65;4.45;;;19.70;93.00;;;;;;5072486;28;20037;-49
2022/05/06 11:58:09;;;;;;;8.02;4.53;;;19.80;92.30;;;;;;5072324;28;20044;-47
2022/05/06 12:00:34;;;;;;;9.82;4.90;;;19.70;92.60;;;;;;5074479;28;20410;-50
2022/05/06 12:03:07;;;;;;;6.70;4.57;;;19.80;92.10;;;;;;5072901;28;20040;-52
2022/05/06 12:05:37;;;;;;;10.35;5.15;;;19.80;92.10;;;;;;5071805;28;20045;-48
2022/05/06 12:08:02;;;;;;;8.15;5.35;;;19.80;91.10;;;;;;5072072;28;20044;-50
2022/05/06 12:10:33;;;;;;;12.18;5.50;;;19.80;90.80;;;;;;5074185;28;20405;-51
2022/05/06 12:13:04;;;;;;;7.97;5.00;;;19.80;90.80;;;;;;5074121;28;20106;-48
2022/05/06 12:15:30;;;;;;;8.52;6.10;;;19.80;91.20;;;;;;5072876;28;20047;-48
2022/05/06 12:18:24;;;;;;;8.45;5.70;;;19.90;91.40;;;;;;5071604;28;20036;-48
2022/05/06 12:20:49;;;;;;;8.68;5.07;;;19.90;91.10;;;;;;5074090;28;20044;-49
2022/05/06 12:23:23;;;;;;;10.75;6.32;;;20.00;91.20;;;;;;5074166;28;20490;-50
2022/05/06 12:25:54;;;;;;;13.32;7.15;;;20.00;91.40;;;;;;5070519;28;20053;-49
2022/05/06 12:28:20;;;;;;;10.23;6.78;;;20.10;90.90;;;;;;5065963;28;20047;-48
2022/05/06 12:30:47;;;;;;;7.55;5.25;;;20.20;90.70;;;;;;5073852;28;20055;-49
2022/05/06 12:33:17;;;;;;;10.30;5.00;;;20.30;91.00;;;;;;5074126;28;20128;-49
2022/05/06 12:36:03;;;;;;;8.95;5.55;;;20.40;90.30;;;;;;5070372;28;20577;-48
2022/05/06 12:38:41;;;;;;;7.13;5.25;;;20.50;87.60;;;;;;5066638;28;20169;-49
2022/05/06 12:41:26;;;;;;;9.55;5.65;;;20.50;87.40;;;;;;5073509;28;20490;-50
2022/05/06 12:43:57;;;;;;;6.72;4.85;;;20.50;88.20;;;;;;5073760;28;20409;-49
2022/05/06 12:46:27;;;;;;;8.38;5.40;;;20.50;87.90;;;;;;5070241;28;20532;-49
2022/05/06 12:51:40;;;;;;;8.07;4.93;;;20.40;85.30;;;;;;5073325;28;20467;-52
2022/05/06 12:54:06;;;;;;;6.40;4.20;;;20.50;86.70;;;;;;5073363;28;20409;-50
2022/05/06 12:56:32;;;;;;;6.00;3.80;;;20.50;87.10;;;;;;5070777;28;20036;-51
2022/05/06 12:58:58;;;;;;;18.35;3.95;;;20.50;85.40;;;;;;5072952;28;20067;-48
2022/05/06 13:01:23;;;;;;;5.75;3.60;;;20.60;84.10;;;;;;5073053;28;20513;-52
2022/05/06 13:03:49;;;;;;;7.22;3.40;;;20.60;84.10;;;;;;5073351;28;20048;-48
2022/05/06 13:06:15;;;;;;;9.60;3.72;;;20.60;83.10;;;;;;5071143;28;20117;-48
2022/05/06 13:08:41;;;;;;;8.20;3.70;;;20.60;82.90;;;;;;5072908;28;20036;-48
2022/05/06 13:11:06;;;;;;;5.63;3.35;;;20.60;84.60;;;;;;5072958;28;20107;-48
2022/05/06 13:13:32;;;;;;;7.45;3.53;;;20.60;84.10;;;;;;5073040;28;20410;-52
2022/05/06 13:15:59;;;;;;;6.43;3.90;;;20.60;83.30;;;;;;5070506;28;21702;-49
2022/05/06 13:18:27;;;;;;;4.85;3.25;;;20.70;84.10;;;;;;5072804;28;20046;-48
2022/05/06 13:20:53;;;;;;;8.07;3.83;;;20.70;85.30;;;;;;5073061;28;20045;-48
2022/05/06 13:23:18;;;;;;;5.80;4.00;;;20.80;83.90;;;;;;5072958;28;20055;-50
2022/05/06 13:25:45;;;;;;;9.55;3.80;;;20.80;82.70;;;;;;5071640;28;20109;-49
2022/05/06 13:28:11;;;;;;;7.32;3.95;;;20.90;83.30;;;;;;5071863;28;20062;-48